sensor_id;sensor_type;location;lat;lon;timestamp;P1;durP1;ratioP1;P2;durP2;ratioP2
1128;SDS011;553;51.038;7.216;2022-07-03T00:01:56;2.03;;;1.60;;
1128;SDS011;553;51.038;7.216;2022-07-03T00:04:23;2.87;;;1.90;;
1128;SDS011;553;51.038;7.216;2022-07-03T00:06:50;4.20;;;1.97;;
1128;SDS011;553;51.038;7.216;2022-07-03T00:09:20;2.00;;;1.80;;
1128;SDS011;553;51.038;7.216;2022-07-03T00:11:47;2.13;;;1.53;;
1128;SDS011;553;51.038;7.216;2022-07-03T00:14:14;4.47;;;2.00;;
1128;SDS011;553;51.038;7.216;2022-07-03T00:16:41;2.10;;;1.60;;
1128;SDS011;553;51.038;7.216;2022-07-03T00:19:08;2.23;;;2.00;;
1128;SDS011;553;51.038;7.216;2022-07-03T00:21:38;2.60;;;1.87;;
1128;SDS011;553;51.038;7.216;2022-07-03T00:24:13;1.93;;;1.70;;
1128;SDS011;553;51.038;7.216;2022-07-03T00:26:49;2.40;;;1.60;;
1128;SDS011;553;51.038;7.216;2022-07-03T00:29:19;2.83;;;1.83;;
1128;SDS011;553;51.038;7.216;2022-07-03T00:31:47;1.90;;;1.40;;
1128;SDS011;553;51.038;7.216;2022-07-03T00:34:15;2.67;;;2.00;;
1128;SDS011;553;51.038;7.216;2022-07-03T00:36:44;3.60;;;1.80;;
1128;SDS011;553;51.038;7.216;2022-07-03T00:39:13;2.10;;;1.80;;
1128;SDS011;553;51.038;7.216;2022-07-03T00:41:40;2.27;;;2.07;;
1128;SDS011;553;51.038;7.216;2022-07-03T00:44:09;4.90;;;2.00;;
1128;SDS011;553;51.038;7.216;2022-07-03T00:46:37;2.90;;;1.47;;
1128;SDS011;553;51.038;7.216;2022-07-03T00:49:06;3.17;;;2.17;;
1128;SDS011;553;51.038;7.216;2022-07-03T00:51:37;1.97;;;1.77;;
1128;SDS011;553;51.038;7.216;2022-07-03T00:54:07;3.97;;;2.07;;
1128;SDS011;553;51.038;7.216;2022-07-03T00:56:35;2.17;;;1.73;;
1128;SDS011;553;51.038;7.216;2022-07-03T00:59:05;3.63;;;2.23;;
1128;SDS011;553;51.038;7.216;2022-07-03T01:01:33;2.67;;;2.07;;
1128;SDS011;553;51.038;7.216;2022-07-03T01:04:22;4.10;;;2.10;;
1128;SDS011;553;51.038;7.216;2022-07-03T01:07:06;3.87;;;2.40;;
1128;SDS011;553;51.038;7.216;2022-07-03T01:18:19;3.33;;;1.90;;
1128;SDS011;553;51.038;7.216;2022-07-03T01:20:47;4.03;;;2.63;;
1128;SDS011;553;51.038;7.216;2022-07-03T01:23:24;2.40;;;2.00;;
1128;SDS011;553;51.038;7.216;2022-07-03T01:26:01;3.13;;;1.90;;
1128;SDS011;553;51.038;7.216;2022-07-03T01:28:30;2.33;;;2.13;;
1128;SDS011;553;51.038;7.216;2022-07-03T01:31:01;2.60;;;2.13;;
1128;SDS011;553;51.038;7.216;2022-07-03T01:33:32;3.90;;;2.30;;
1128;SDS011;553;51.038;7.216;2022-07-03T01:38:28;2.33;;;1.80;;
1128;SDS011;553;51.038;7.216;2022-07-03T01:40:56;4.27;;;1.73;;
1128;SDS011;553;51.038;7.216;2022-07-03T01:43:26;3.50;;;2.20;;
1128;SDS011;553;51.038;7.216;2022-07-03T01:45:56;3.60;;;1.60;;
1128;SDS011;553;51.038;7.216;2022-07-03T01:48:28;2.73;;;1.97;;
1128;SDS011;553;51.038;7.216;2022-07-03T01:50:56;4.70;;;2.07;;
1128;SDS011;553;51.038;7.216;2022-07-03T01:53:24;3.73;;;2.83;;
1128;SDS011;553;51.038;7.216;2022-07-03T01:55:56;3.00;;;1.97;;
1128;SDS011;553;51.038;7.216;2022-07-03T01:58:25;4.43;;;1.90;;
1128;SDS011;553;51.038;7.216;2022-07-03T02:01:10;1.90;;;1.70;;
1128;SDS011;553;51.038;7.216;2022-07-03T02:06:43;2.53;;;2.33;;
1128;SDS011;553;51.038;7.216;2022-07-03T02:09:17;5.07;;;2.70;;
1128;SDS011;553;51.038;7.216;2022-07-03T02:12:08;4.57;;;1.93;;
1128;SDS011;553;51.038;7.216;2022-07-03T02:14:39;3.33;;;2.30;;
1128;SDS011;553;51.038;7.216;2022-07-03T02:19:49;3.10;;;2.10;;
1128;SDS011;553;51.038;7.216;2022-07-03T02:22:19;4.70;;;2.90;;
1128;SDS011;553;51.038;7.216;2022-07-03T02:24:48;5.97;;;2.60;;
1128;SDS011;553;51.038;7.216;2022-07-03T02:27:19;4.30;;;2.53;;
1128;SDS011;553;51.038;7.216;2022-07-03T02:29:54;3.03;;;2.20;;
1128;SDS011;553;51.038;7.216;2022-07-03T02:32:27;3.07;;;2.03;;
1128;SDS011;553;51.038;7.216;2022-07-03T02:35:00;2.53;;;2.10;;
1128;SDS011;553;51.038;7.216;2022-07-03T02:37:32;4.80;;;2.13;;
1128;SDS011;553;51.038;7.216;2022-07-03T02:40:16;3.53;;;2.20;;
1128;SDS011;553;51.038;7.216;2022-07-03T02:45:44;3.80;;;2.80;;
1128;SDS011;553;51.038;7.216;2022-07-03T02:48:27;4.03;;;2.50;;
1128;SDS011;553;51.038;7.216;2022-07-03T02:50:58;4.33;;;2.73;;
1128;SDS011;553;51.038;7.216;2022-07-03T02:53:33;2.90;;;2.30;;
1128;SDS011;553;51.038;7.216;2022-07-03T02:56:10;4.27;;;2.33;;
1128;SDS011;553;51.038;7.216;2022-07-03T02:58:49;4.43;;;2.63;;
1128;SDS011;553;51.038;7.216;2022-07-03T03:04:09;3.73;;;2.80;;
1128;SDS011;553;51.038;7.216;2022-07-03T03:06:45;3.90;;;2.67;;
1128;SDS011;553;51.038;7.216;2022-07-03T03:09:19;3.67;;;2.40;;
1128;SDS011;553;51.038;7.216;2022-07-03T03:11:52;2.60;;;2.37;;
1128;SDS011;553;51.038;7.216;2022-07-03T03:14:21;4.03;;;3.00;;
1128;SDS011;553;51.038;7.216;2022-07-03T03:16:53;5.33;;;2.43;;
1128;SDS011;553;51.038;7.216;2022-07-03T03:19:24;3.30;;;2.70;;
1128;SDS011;553;51.038;7.216;2022-07-03T03:21:57;4.63;;;2.43;;
1128;SDS011;553;51.038;7.216;2022-07-03T03:24:33;3.33;;;2.43;;
1128;SDS011;553;51.038;7.216;2022-07-03T03:27:00;3.60;;;2.90;;
1128;SDS011;553;51.038;7.216;2022-07-03T03:29:27;2.87;;;2.53;;
1128;SDS011;553;51.038;7.216;2022-07-03T03:31:54;3.23;;;2.90;;
1128;SDS011;553;51.038;7.216;2022-07-03T03:34:28;6.70;;;3.13;;
1128;SDS011;553;51.038;7.216;2022-07-03T03:36:57;3.70;;;3.20;;
1128;SDS011;553;51.038;7.216;2022-07-03T03:39:24;4.10;;;3.40;;
1128;SDS011;553;51.038;7.216;2022-07-03T03:41:52;4.63;;;3.20;;
1128;SDS011;553;51.038;7.216;2022-07-03T03:44:19;5.53;;;3.63;;
1128;SDS011;553;51.038;7.216;2022-07-03T03:46:45;3.00;;;2.70;;
1128;SDS011;553;51.038;7.216;2022-07-03T03:49:12;4.80;;;3.00;;
1128;SDS011;553;51.038;7.216;2022-07-03T03:51:40;4.87;;;3.27;;
1128;SDS011;553;51.038;7.216;2022-07-03T03:54:07;3.90;;;2.60;;
1128;SDS011;553;51.038;7.216;2022-07-03T03:56:33;3.50;;;2.50;;
1128;SDS011;553;51.038;7.216;2022-07-03T03:59:00;3.10;;;2.80;;
1128;SDS011;553;51.038;7.216;2022-07-03T04:01:27;4.17;;;3.00;;
1128;SDS011;553;51.038;7.216;2022-07-03T04:03:54;4.40;;;3.23;;
1128;SDS011;553;51.038;7.216;2022-07-03T04:06:21;5.17;;;3.27;;
1128;SDS011;553;51.038;7.216;2022-07-03T04:08:47;6.47;;;3.60;;
1128;SDS011;553;51.038;7.216;2022-07-03T04:11:14;4.50;;;3.20;;
1128;SDS011;553;51.038;7.216;2022-07-03T04:13:41;2.80;;;2.60;;
1128;SDS011;553;51.038;7.216;2022-07-03T04:16:08;3.80;;;2.83;;
1128;SDS011;553;51.038;7.216;2022-07-03T04:18:34;3.47;;;3.17;;
1128;SDS011;553;51.038;7.216;2022-07-03T04:21:01;5.50;;;3.00;;
1128;SDS011;553;51.038;7.216;2022-07-03T04:23:29;4.30;;;3.17;;
1128;SDS011;553;51.038;7.216;2022-07-03T04:26:03;5.83;;;2.63;;
1128;SDS011;553;51.038;7.216;2022-07-03T04:28:31;4.37;;;2.70;;
1128;SDS011;553;51.038;7.216;2022-07-03T04:30:58;3.23;;;2.93;;
1128;SDS011;553;51.038;7.216;2022-07-03T04:33:25;3.50;;;2.90;;
1128;SDS011;553;51.038;7.216;2022-07-03T04:35:52;4.40;;;3.30;;
1128;SDS011;553;51.038;7.216;2022-07-03T04:38:18;4.70;;;2.70;;
1128;SDS011;553;51.038;7.216;2022-07-03T04:40:45;6.80;;;2.97;;
1128;SDS011;553;51.038;7.216;2022-07-03T04:43:12;5.87;;;3.40;;
1128;SDS011;553;51.038;7.216;2022-07-03T04:45:39;3.67;;;2.90;;
1128;SDS011;553;51.038;7.216;2022-07-03T04:48:06;3.13;;;2.50;;
1128;SDS011;553;51.038;7.216;2022-07-03T04:50:33;3.73;;;2.90;;
1128;SDS011;553;51.038;7.216;2022-07-03T04:52:59;3.17;;;2.87;;
1128;SDS011;553;51.038;7.216;2022-07-03T04:55:26;5.63;;;2.90;;
1128;SDS011;553;51.038;7.216;2022-07-03T04:57:53;3.90;;;2.60;;
1128;SDS011;553;51.038;7.216;2022-07-03T05:00:20;4.10;;;2.63;;
1128;SDS011;553;51.038;7.216;2022-07-03T05:02:46;3.87;;;2.80;;
1128;SDS011;553;51.038;7.216;2022-07-03T05:05:13;3.00;;;2.40;;
1128;SDS011;553;51.038;7.216;2022-07-03T05:07:40;4.03;;;2.70;;
1128;SDS011;553;51.038;7.216;2022-07-03T05:10:07;3.50;;;2.50;;
1128;SDS011;553;51.038;7.216;2022-07-03T05:12:34;4.50;;;2.67;;
1128;SDS011;553;51.038;7.216;2022-07-03T05:15:06;3.17;;;2.87;;
1128;SDS011;553;51.038;7.216;2022-07-03T05:17:34;3.20;;;2.90;;
1128;SDS011;553;51.038;7.216;2022-07-03T05:20:01;3.30;;;2.80;;
1128;SDS011;553;51.038;7.216;2022-07-03T05:22:48;3.80;;;2.83;;
1128;SDS011;553;51.038;7.216;2022-07-03T05:25:14;3.03;;;2.67;;
1128;SDS011;553;51.038;7.216;2022-07-03T05:27:41;4.00;;;2.80;;
1128;SDS011;553;51.038;7.216;2022-07-03T05:30:08;5.07;;;2.57;;
1128;SDS011;553;51.038;7.216;2022-07-03T05:32:36;4.20;;;2.40;;
1128;SDS011;553;51.038;7.216;2022-07-03T05:35:03;4.30;;;3.17;;
1128;SDS011;553;51.038;7.216;2022-07-03T05:37:30;3.33;;;3.03;;
1128;SDS011;553;51.038;7.216;2022-07-03T05:39:57;4.13;;;2.93;;
1128;SDS011;553;51.038;7.216;2022-07-03T05:42:24;2.93;;;2.63;;
1128;SDS011;553;51.038;7.216;2022-07-03T05:44:51;3.60;;;2.43;;
1128;SDS011;553;51.038;7.216;2022-07-03T05:47:17;3.77;;;2.83;;
1128;SDS011;553;51.038;7.216;2022-07-03T05:49:44;8.20;;;3.30;;
1128;SDS011;553;51.038;7.216;2022-07-03T05:52:12;4.77;;;2.70;;
1128;SDS011;553;51.038;7.216;2022-07-03T05:54:38;5.43;;;3.20;;
1128;SDS011;553;51.038;7.216;2022-07-03T05:57:05;4.43;;;2.83;;
1128;SDS011;553;51.038;7.216;2022-07-03T05:59:32;4.07;;;2.80;;
1128;SDS011;553;51.038;7.216;2022-07-03T06:01:59;4.30;;;2.43;;
1128;SDS011;553;51.038;7.216;2022-07-03T06:04:25;4.30;;;2.57;;
1128;SDS011;553;51.038;7.216;2022-07-03T06:06:52;5.03;;;2.90;;
1128;SDS011;553;51.038;7.216;2022-07-03T06:09:21;3.60;;;2.70;;
1128;SDS011;553;51.038;7.216;2022-07-03T06:11:48;7.23;;;2.97;;
1128;SDS011;553;51.038;7.216;2022-07-03T06:14:15;4.40;;;2.93;;
1128;SDS011;553;51.038;7.216;2022-07-03T06:16:42;5.37;;;2.80;;
1128;SDS011;553;51.038;7.216;2022-07-03T06:19:09;3.63;;;3.17;;
1128;SDS011;553;51.038;7.216;2022-07-03T06:21:36;7.93;;;2.87;;
1128;SDS011;553;51.038;7.216;2022-07-03T06:24:03;4.83;;;2.80;;
1128;SDS011;553;51.038;7.216;2022-07-03T06:26:30;4.87;;;2.87;;
1128;SDS011;553;51.038;7.216;2022-07-03T06:28:57;6.53;;;3.00;;
1128;SDS011;553;51.038;7.216;2022-07-03T06:31:23;4.23;;;2.80;;
1128;SDS011;553;51.038;7.216;2022-07-03T06:33:50;4.47;;;2.67;;
1128;SDS011;553;51.038;7.216;2022-07-03T06:36:17;5.90;;;2.73;;
1128;SDS011;553;51.038;7.216;2022-07-03T06:38:43;5.20;;;3.07;;
1128;SDS011;553;51.038;7.216;2022-07-03T06:41:11;4.53;;;3.00;;
1128;SDS011;553;51.038;7.216;2022-07-03T06:43:38;4.37;;;3.30;;
1128;SDS011;553;51.038;7.216;2022-07-03T06:46:05;4.73;;;2.80;;
1128;SDS011;553;51.038;7.216;2022-07-03T06:48:32;5.57;;;3.33;;
1128;SDS011;553;51.038;7.216;2022-07-03T06:50:59;2.73;;;2.40;;
1128;SDS011;553;51.038;7.216;2022-07-03T06:53:26;6.73;;;3.10;;
1128;SDS011;553;51.038;7.216;2022-07-03T06:55:52;4.40;;;3.00;;
1128;SDS011;553;51.038;7.216;2022-07-03T06:58:19;7.47;;;3.77;;
1128;SDS011;553;51.038;7.216;2022-07-03T07:00:46;5.23;;;2.67;;
1128;SDS011;553;51.038;7.216;2022-07-03T07:03:13;4.00;;;2.50;;
1128;SDS011;553;51.038;7.216;2022-07-03T07:05:39;5.50;;;3.10;;
1128;SDS011;553;51.038;7.216;2022-07-03T07:08:06;8.43;;;2.93;;
1128;SDS011;553;51.038;7.216;2022-07-03T07:10:33;5.90;;;3.10;;
1128;SDS011;553;51.038;7.216;2022-07-03T07:13:00;6.03;;;2.97;;
1128;SDS011;553;51.038;7.216;2022-07-03T07:15:26;4.13;;;2.60;;
1128;SDS011;553;51.038;7.216;2022-07-03T07:17:53;3.60;;;2.67;;
1128;SDS011;553;51.038;7.216;2022-07-03T07:20:20;4.53;;;3.23;;
1128;SDS011;553;51.038;7.216;2022-07-03T07:22:46;5.67;;;2.87;;
1128;SDS011;553;51.038;7.216;2022-07-03T07:25:13;5.20;;;3.40;;
1128;SDS011;553;51.038;7.216;2022-07-03T07:27:40;6.80;;;3.17;;
1128;SDS011;553;51.038;7.216;2022-07-03T07:30:07;5.17;;;3.00;;
1128;SDS011;553;51.038;7.216;2022-07-03T07:32:35;5.03;;;2.83;;
1128;SDS011;553;51.038;7.216;2022-07-03T07:35:02;4.33;;;3.00;;
1128;SDS011;553;51.038;7.216;2022-07-03T07:37:29;5.77;;;3.43;;
1128;SDS011;553;51.038;7.216;2022-07-03T07:39:56;2.90;;;2.60;;
1128;SDS011;553;51.038;7.216;2022-07-03T07:42:22;8.13;;;3.50;;
1128;SDS011;553;51.038;7.216;2022-07-03T07:44:50;5.87;;;3.40;;
1128;SDS011;553;51.038;7.216;2022-07-03T07:47:17;8.80;;;3.00;;
1128;SDS011;553;51.038;7.216;2022-07-03T07:49:44;6.43;;;3.40;;
1128;SDS011;553;51.038;7.216;2022-07-03T07:52:11;6.60;;;3.97;;
1128;SDS011;553;51.038;7.216;2022-07-03T07:54:38;5.83;;;3.03;;
1128;SDS011;553;51.038;7.216;2022-07-03T07:57:05;5.13;;;3.50;;
1128;SDS011;553;51.038;7.216;2022-07-03T07:59:31;6.07;;;3.83;;
1128;SDS011;553;51.038;7.216;2022-07-03T08:01:58;5.10;;;3.00;;
1128;SDS011;553;51.038;7.216;2022-07-03T08:04:44;4.40;;;3.50;;
1128;SDS011;553;51.038;7.216;2022-07-03T08:07:29;5.43;;;3.43;;
1128;SDS011;553;51.038;7.216;2022-07-03T08:09:56;5.13;;;3.70;;
1128;SDS011;553;51.038;7.216;2022-07-03T08:12:23;4.87;;;3.20;;
1128;SDS011;553;51.038;7.216;2022-07-03T08:14:49;9.00;;;3.30;;
1128;SDS011;553;51.038;7.216;2022-07-03T08:17:16;5.67;;;3.70;;
1128;SDS011;553;51.038;7.216;2022-07-03T08:19:43;8.43;;;3.50;;
1128;SDS011;553;51.038;7.216;2022-07-03T08:22:10;5.03;;;3.37;;
1128;SDS011;553;51.038;7.216;2022-07-03T08:24:37;6.97;;;3.10;;
1128;SDS011;553;51.038;7.216;2022-07-03T08:27:09;8.30;;;4.00;;
1128;SDS011;553;51.038;7.216;2022-07-03T08:29:36;7.63;;;3.97;;
1128;SDS011;553;51.038;7.216;2022-07-03T08:32:03;6.57;;;3.97;;
1128;SDS011;553;51.038;7.216;2022-07-03T08:34:30;7.43;;;3.50;;
1128;SDS011;553;51.038;7.216;2022-07-03T08:36:57;5.20;;;3.20;;
1128;SDS011;553;51.038;7.216;2022-07-03T08:39:24;4.27;;;3.20;;
1128;SDS011;553;51.038;7.216;2022-07-03T08:41:51;5.77;;;3.73;;
1128;SDS011;553;51.038;7.216;2022-07-03T08:44:19;4.53;;;2.90;;
1128;SDS011;553;51.038;7.216;2022-07-03T08:46:48;6.20;;;3.43;;
1128;SDS011;553;51.038;7.216;2022-07-03T08:49:17;6.43;;;3.00;;
1128;SDS011;553;51.038;7.216;2022-07-03T08:51:45;5.27;;;3.70;;
1128;SDS011;553;51.038;7.216;2022-07-03T08:54:13;9.00;;;4.13;;
1128;SDS011;553;51.038;7.216;2022-07-03T08:56:39;6.37;;;3.03;;
1128;SDS011;553;51.038;7.216;2022-07-03T08:59:07;6.53;;;3.50;;
1128;SDS011;553;51.038;7.216;2022-07-03T09:01:34;4.57;;;2.83;;
1128;SDS011;553;51.038;7.216;2022-07-03T09:04:10;9.27;;;3.67;;
1128;SDS011;553;51.038;7.216;2022-07-03T09:06:40;6.47;;;3.73;;
1128;SDS011;553;51.038;7.216;2022-07-03T09:09:08;3.77;;;3.10;;
1128;SDS011;553;51.038;7.216;2022-07-03T09:11:36;8.70;;;3.60;;
1128;SDS011;553;51.038;7.216;2022-07-03T09:14:03;4.60;;;3.13;;
1128;SDS011;553;51.038;7.216;2022-07-03T09:16:35;4.40;;;2.53;;
1128;SDS011;553;51.038;7.216;2022-07-03T09:19:02;6.70;;;3.53;;
1128;SDS011;553;51.038;7.216;2022-07-03T09:21:37;5.27;;;3.40;;
1128;SDS011;553;51.038;7.216;2022-07-03T09:24:05;5.77;;;3.60;;
1128;SDS011;553;51.038;7.216;2022-07-03T09:26:33;5.77;;;3.90;;
1128;SDS011;553;51.038;7.216;2022-07-03T09:29:01;5.73;;;3.77;;
1128;SDS011;553;51.038;7.216;2022-07-03T09:31:29;4.63;;;3.40;;
1128;SDS011;553;51.038;7.216;2022-07-03T09:34:00;4.73;;;3.10;;
1128;SDS011;553;51.038;7.216;2022-07-03T09:36:42;7.70;;;3.23;;
1128;SDS011;553;51.038;7.216;2022-07-03T09:42:29;5.10;;;2.90;;
1128;SDS011;553;51.038;7.216;2022-07-03T09:57:38;5.30;;;2.77;;
1128;SDS011;553;51.038;7.216;2022-07-03T10:02:51;6.10;;;2.90;;
1128;SDS011;553;51.038;7.216;2022-07-03T10:08:33;4.77;;;2.57;;
1128;SDS011;553;51.038;7.216;2022-07-03T10:10:52;3.73;;;2.77;;
1128;SDS011;553;51.038;7.216;2022-07-03T10:13:19;4.33;;;2.20;;
1128;SDS011;553;51.038;7.216;2022-07-03T10:15:46;2.93;;;2.40;;
1128;SDS011;553;51.038;7.216;2022-07-03T10:18:14;4.30;;;3.10;;
1128;SDS011;553;51.038;7.216;2022-07-03T10:20:47;4.97;;;2.77;;
1128;SDS011;553;51.038;7.216;2022-07-03T10:23:16;4.93;;;2.60;;
1128;SDS011;553;51.038;7.216;2022-07-03T10:25:47;3.17;;;2.80;;
1128;SDS011;553;51.038;7.216;2022-07-03T10:28:15;7.57;;;3.50;;
1128;SDS011;553;51.038;7.216;2022-07-03T10:30:43;3.17;;;2.50;;
1128;SDS011;553;51.038;7.216;2022-07-03T10:33:10;4.37;;;2.50;;
1128;SDS011;553;51.038;7.216;2022-07-03T10:35:38;8.83;;;2.53;;
1128;SDS011;553;51.038;7.216;2022-07-03T10:40:44;2.10;;;1.83;;
1128;SDS011;553;51.038;7.216;2022-07-03T10:43:45;3.73;;;2.70;;
1128;SDS011;553;51.038;7.216;2022-07-03T10:46:32;5.60;;;2.33;;
1128;SDS011;553;51.038;7.216;2022-07-03T10:49:08;4.97;;;2.23;;
1128;SDS011;553;51.038;7.216;2022-07-03T10:54:18;2.90;;;2.40;;
1128;SDS011;553;51.038;7.216;2022-07-03T11:02:53;2.97;;;1.67;;
1128;SDS011;553;51.038;7.216;2022-07-03T11:07:44;2.60;;;1.50;;
1128;SDS011;553;51.038;7.216;2022-07-03T11:10:31;2.73;;;1.83;;
1128;SDS011;553;51.038;7.216;2022-07-03T11:13:03;3.73;;;1.90;;
1128;SDS011;553;51.038;7.216;2022-07-03T11:15:51;5.97;;;2.80;;
1128;SDS011;553;51.038;7.216;2022-07-03T11:18:34;3.30;;;2.23;;
1128;SDS011;553;51.038;7.216;2022-07-03T11:21:05;3.90;;;2.00;;
1128;SDS011;553;51.038;7.216;2022-07-03T11:26:26;3.30;;;2.17;;
1128;SDS011;553;51.038;7.216;2022-07-03T11:28:53;5.90;;;2.40;;
1128;SDS011;553;51.038;7.216;2022-07-03T11:31:20;5.60;;;2.17;;
1128;SDS011;553;51.038;7.216;2022-07-03T11:33:56;2.53;;;1.90;;
1128;SDS011;553;51.038;7.216;2022-07-03T11:36:25;2.10;;;1.83;;
1128;SDS011;553;51.038;7.216;2022-07-03T11:43:57;1.87;;;1.70;;
1128;SDS011;553;51.038;7.216;2022-07-03T11:46:26;2.30;;;1.40;;
1128;SDS011;553;51.038;7.216;2022-07-03T11:49:13;3.93;;;1.80;;
1128;SDS011;553;51.038;7.216;2022-07-03T11:51:41;3.23;;;1.57;;
1128;SDS011;553;51.038;7.216;2022-07-03T11:54:10;4.43;;;1.70;;
1128;SDS011;553;51.038;7.216;2022-07-03T11:56:37;2.43;;;1.23;;
1128;SDS011;553;51.038;7.216;2022-07-03T11:59:05;5.50;;;1.97;;
1128;SDS011;553;51.038;7.216;2022-07-03T12:01:33;2.60;;;1.70;;
1128;SDS011;553;51.038;7.216;2022-07-03T12:06:45;2.37;;;1.50;;
1128;SDS011;553;51.038;7.216;2022-07-03T12:17:21;3.07;;;1.70;;
1128;SDS011;553;51.038;7.216;2022-07-03T12:19:50;3.80;;;1.93;;
1128;SDS011;553;51.038;7.216;2022-07-03T12:22:28;3.43;;;2.50;;
1128;SDS011;553;51.038;7.216;2022-07-03T12:27:33;6.37;;;2.20;;
1128;SDS011;553;51.038;7.216;2022-07-03T12:30:01;2.50;;;2.23;;
1128;SDS011;553;51.038;7.216;2022-07-03T12:32:28;4.63;;;2.33;;
1128;SDS011;553;51.038;7.216;2022-07-03T12:34:55;2.80;;;2.47;;
1128;SDS011;553;51.038;7.216;2022-07-03T12:37:35;6.13;;;2.67;;
1128;SDS011;553;51.038;7.216;2022-07-03T12:40:05;3.50;;;2.30;;
1128;SDS011;553;51.038;7.216;2022-07-03T12:42:42;2.63;;;1.90;;
1128;SDS011;553;51.038;7.216;2022-07-03T12:45:10;3.10;;;2.07;;
1128;SDS011;553;51.038;7.216;2022-07-03T12:47:42;3.97;;;2.10;;
1128;SDS011;553;51.038;7.216;2022-07-03T12:50:10;5.23;;;1.97;;
1128;SDS011;553;51.038;7.216;2022-07-03T12:52:53;2.97;;;2.10;;
1128;SDS011;553;51.038;7.216;2022-07-03T12:55:23;2.60;;;1.70;;
1128;SDS011;553;51.038;7.216;2022-07-03T12:58:09;5.60;;;2.40;;
1128;SDS011;553;51.038;7.216;2022-07-03T13:00:55;3.20;;;2.10;;
1128;SDS011;553;51.038;7.216;2022-07-03T13:03:25;3.20;;;2.20;;
1128;SDS011;553;51.038;7.216;2022-07-03T13:06:13;4.90;;;2.23;;
1128;SDS011;553;51.038;7.216;2022-07-03T13:11:25;4.37;;;2.60;;
1128;SDS011;553;51.038;7.216;2022-07-03T13:14:09;4.20;;;2.30;;
1128;SDS011;553;51.038;7.216;2022-07-03T13:19:19;2.57;;;1.87;;
1128;SDS011;553;51.038;7.216;2022-07-03T13:21:47;6.57;;;2.03;;
1128;SDS011;553;51.038;7.216;2022-07-03T13:24:16;4.50;;;2.10;;
1128;SDS011;553;51.038;7.216;2022-07-03T13:26:45;5.17;;;2.10;;
1128;SDS011;553;51.038;7.216;2022-07-03T13:29:18;3.60;;;1.70;;
1128;SDS011;553;51.038;7.216;2022-07-03T13:31:45;2.57;;;2.13;;
1128;SDS011;553;51.038;7.216;2022-07-03T13:34:13;2.00;;;1.80;;
1128;SDS011;553;51.038;7.216;2022-07-03T13:36:39;4.00;;;2.20;;
1128;SDS011;553;51.038;7.216;2022-07-03T13:39:06;3.63;;;1.90;;
1128;SDS011;553;51.038;7.216;2022-07-03T13:41:35;4.00;;;2.03;;
1128;SDS011;553;51.038;7.216;2022-07-03T13:44:02;3.93;;;2.00;;
1128;SDS011;553;51.038;7.216;2022-07-03T13:46:30;3.07;;;1.53;;
1128;SDS011;553;51.038;7.216;2022-07-03T13:48:57;5.57;;;2.03;;
1128;SDS011;553;51.038;7.216;2022-07-03T13:51:24;3.77;;;2.20;;
1128;SDS011;553;51.038;7.216;2022-07-03T13:53:51;2.93;;;1.80;;
1128;SDS011;553;51.038;7.216;2022-07-03T13:56:17;1.73;;;1.40;;
1128;SDS011;553;51.038;7.216;2022-07-03T13:58:44;4.30;;;1.80;;
1128;SDS011;553;51.038;7.216;2022-07-03T14:01:17;2.00;;;1.90;;
1128;SDS011;553;51.038;7.216;2022-07-03T14:03:46;3.30;;;2.07;;
1128;SDS011;553;51.038;7.216;2022-07-03T14:06:13;2.50;;;1.83;;
1128;SDS011;553;51.038;7.216;2022-07-03T14:08:40;3.30;;;1.70;;
1128;SDS011;553;51.038;7.216;2022-07-03T14:11:07;4.50;;;1.80;;
1128;SDS011;553;51.038;7.216;2022-07-03T14:13:34;2.33;;;1.60;;
1128;SDS011;553;51.038;7.216;2022-07-03T14:16:01;2.40;;;1.50;;
1128;SDS011;553;51.038;7.216;2022-07-03T14:18:28;3.10;;;1.40;;
1128;SDS011;553;51.038;7.216;2022-07-03T14:20:55;2.20;;;1.53;;
1128;SDS011;553;51.038;7.216;2022-07-03T14:23:21;2.63;;;1.70;;
1128;SDS011;553;51.038;7.216;2022-07-03T14:25:48;1.60;;;1.40;;
1128;SDS011;553;51.038;7.216;2022-07-03T14:28:15;2.60;;;1.53;;
1128;SDS011;553;51.038;7.216;2022-07-03T14:31:00;2.50;;;1.70;;
1128;SDS011;553;51.038;7.216;2022-07-03T14:33:46;2.20;;;1.30;;
1128;SDS011;553;51.038;7.216;2022-07-03T14:36:16;2.20;;;1.50;;
1128;SDS011;553;51.038;7.216;2022-07-03T14:39:03;1.70;;;1.40;;
1128;SDS011;553;51.038;7.216;2022-07-03T14:41:29;2.03;;;1.50;;
1128;SDS011;553;51.038;7.216;2022-07-03T14:43:56;2.50;;;1.27;;
1128;SDS011;553;51.038;7.216;2022-07-03T14:46:23;2.30;;;1.40;;
1128;SDS011;553;51.038;7.216;2022-07-03T14:48:50;3.23;;;1.87;;
1128;SDS011;553;51.038;7.216;2022-07-03T14:51:18;3.23;;;1.50;;
1128;SDS011;553;51.038;7.216;2022-07-03T14:53:46;7.20;;;1.73;;
1128;SDS011;553;51.038;7.216;2022-07-03T14:56:13;1.70;;;1.40;;
1128;SDS011;553;51.038;7.216;2022-07-03T14:58:44;2.67;;;1.10;;
1128;SDS011;553;51.038;7.216;2022-07-03T15:01:13;2.03;;;1.10;;
1128;SDS011;553;51.038;7.216;2022-07-03T15:03:49;4.27;;;1.83;;
1128;SDS011;553;51.038;7.216;2022-07-03T15:06:25;2.60;;;1.60;;
1128;SDS011;553;51.038;7.216;2022-07-03T15:09:00;2.93;;;1.20;;
1128;SDS011;553;51.038;7.216;2022-07-03T15:11:31;3.53;;;1.23;;
1128;SDS011;553;51.038;7.216;2022-07-03T15:14:20;3.37;;;1.40;;
1128;SDS011;553;51.038;7.216;2022-07-03T15:16:51;2.60;;;1.37;;
1128;SDS011;553;51.038;7.216;2022-07-03T15:19:19;3.10;;;1.50;;
1128;SDS011;553;51.038;7.216;2022-07-03T15:21:49;2.03;;;1.37;;
1128;SDS011;553;51.038;7.216;2022-07-03T15:24:17;2.30;;;1.53;;
1128;SDS011;553;51.038;7.216;2022-07-03T15:26:49;3.97;;;1.40;;
1128;SDS011;553;51.038;7.216;2022-07-03T15:29:18;2.03;;;1.53;;
1128;SDS011;553;51.038;7.216;2022-07-03T15:31:45;1.50;;;1.27;;
1128;SDS011;553;51.038;7.216;2022-07-03T15:34:13;1.77;;;1.43;;
1128;SDS011;553;51.038;7.216;2022-07-03T15:39:49;3.97;;;1.47;;
1128;SDS011;553;51.038;7.216;2022-07-03T15:48:03;3.00;;;1.07;;
1128;SDS011;553;51.038;7.216;2022-07-03T15:53:37;3.07;;;1.63;;
1128;SDS011;553;51.038;7.216;2022-07-03T15:56:06;7.60;;;1.10;;
1128;SDS011;553;51.038;7.216;2022-07-03T15:58:34;2.50;;;1.17;;
1128;SDS011;553;51.038;7.216;2022-07-03T16:01:02;2.43;;;1.50;;
1128;SDS011;553;51.038;7.216;2022-07-03T16:04:02;2.67;;;1.17;;
1128;SDS011;553;51.038;7.216;2022-07-03T16:06:37;1.97;;;1.43;;
1128;SDS011;553;51.038;7.216;2022-07-03T16:09:07;4.80;;;1.70;;
1128;SDS011;553;51.038;7.216;2022-07-03T16:11:34;4.23;;;1.70;;
1128;SDS011;553;51.038;7.216;2022-07-03T16:14:02;2.80;;;1.30;;
1128;SDS011;553;51.038;7.216;2022-07-03T16:16:31;2.67;;;1.10;;
1128;SDS011;553;51.038;7.216;2022-07-03T16:19:00;2.50;;;1.27;;
1128;SDS011;553;51.038;7.216;2022-07-03T16:21:29;2.00;;;1.00;;
1128;SDS011;553;51.038;7.216;2022-07-03T16:23:57;7.83;;;1.50;;
1128;SDS011;553;51.038;7.216;2022-07-03T16:26:26;4.60;;;1.70;;
1128;SDS011;553;51.038;7.216;2022-07-03T16:28:54;5.23;;;1.37;;
1128;SDS011;553;51.038;7.216;2022-07-03T16:31:24;2.53;;;1.23;;
1128;SDS011;553;51.038;7.216;2022-07-03T16:33:56;1.60;;;1.10;;
1128;SDS011;553;51.038;7.216;2022-07-03T16:36:43;1.57;;;0.93;;
1128;SDS011;553;51.038;7.216;2022-07-03T16:39:16;3.30;;;1.30;;
1128;SDS011;553;51.038;7.216;2022-07-03T16:41:50;6.70;;;1.37;;
1128;SDS011;553;51.038;7.216;2022-07-03T16:44:20;2.10;;;1.30;;
1128;SDS011;553;51.038;7.216;2022-07-03T16:46:57;2.80;;;1.17;;
1128;SDS011;553;51.038;7.216;2022-07-03T16:49:28;1.47;;;1.17;;
1128;SDS011;553;51.038;7.216;2022-07-03T16:52:01;6.50;;;1.03;;
1128;SDS011;553;51.038;7.216;2022-07-03T16:54:30;2.80;;;1.20;;
1128;SDS011;553;51.038;7.216;2022-07-03T16:56:58;3.40;;;1.50;;
1128;SDS011;553;51.038;7.216;2022-07-03T16:59:25;2.90;;;1.23;;
1128;SDS011;553;51.038;7.216;2022-07-03T17:01:52;1.80;;;1.10;;
1128;SDS011;553;51.038;7.216;2022-07-03T17:04:19;3.07;;;1.63;;
1128;SDS011;553;51.038;7.216;2022-07-03T17:06:47;2.70;;;1.30;;
1128;SDS011;553;51.038;7.216;2022-07-03T17:09:14;1.97;;;1.20;;
1128;SDS011;553;51.038;7.216;2022-07-03T17:11:43;2.17;;;1.43;;
1128;SDS011;553;51.038;7.216;2022-07-03T17:14:11;2.10;;;1.33;;
1128;SDS011;553;51.038;7.216;2022-07-03T17:16:46;1.70;;;1.20;;
1128;SDS011;553;51.038;7.216;2022-07-03T17:19:20;1.20;;;1.00;;
1128;SDS011;553;51.038;7.216;2022-07-03T17:21:49;2.00;;;1.13;;
1128;SDS011;553;51.038;7.216;2022-07-03T17:24:36;2.10;;;1.37;;